Time;durP1;ratioP1;P1;durP2;ratioP2;P2;SDS_P1;SDS_P2;PMS_P1;PMS_P2;Temp;Humidity;BMP_temperature;BMP_pressure;BME280_temperature;BME280_humidity;BME280_pressure;Samples;Min_cycle;Max_cycle;Signal;HPM_P1;HPM_P2
2021/09/17 00:01:57;;;;;;;65.50;18.40;;;;;;;5.43;61.40;101181.72;1770015;80;21261;-59
2021/09/17 00:04:30;;;;;;;75.33;19.20;;;;;;;5.41;61.49;101178.38;1770402;81;21265;-59
2021/09/17 00:07:03;;;;;;;68.72;18.80;;;;;;;5.37;61.57;101180.73;1772016;81;21316;-59
2021/09/17 00:09:37;;;;;;;56.02;16.30;;;;;;;5.30;61.63;101178.08;1770273;81;21328;-60
2021/09/17 00:12:10;;;;;;;58.00;16.27;;;;;;;5.24;61.73;101173.22;1771693;81;21280;-59
2021/09/17 00:14:43;;;;;;;;;;;;;;;5.19;61.82;101175.67;1772529;81;21818;-59
2021/09/17 00:17:16;;;;;;;37.75;12.25;;;;;;;5.14;62.04;101175.91;1771555;81;20246;-59
2021/09/17 00:19:50;;;;;;;;;;;;;;;5.08;62.04;101172.34;1772595;81;21210;-59
2021/09/17 00:22:22;;;;;;;40.63;13.28;;;;;;;5.05;61.99;101171.65;1771957;81;20263;-59
2021/09/17 00:24:56;;;;;;;55.57;14.37;;;;;;;4.99;61.83;101175.39;1771164;81;21185;-59
2021/09/17 00:27:30;;;;;;;52.60;14.03;;;;;;;4.94;61.78;101174.81;1769986;81;21209;-62
2021/09/17 00:30:05;;;;;;;55.10;13.53;;;;;;;4.91;61.74;101172.36;1771183;81;21293;-60
2021/09/17 00:32:38;;;;;;;48.25;12.37;;;;;;;4.89;61.85;101177.25;1771514;81;21265;-60
2021/09/17 00:35:13;;;;;;;52.23;15.33;;;;;;;4.90;61.91;101178.91;1771229;81;21261;-60
2021/09/17 00:37:46;;;;;;;46.48;15.78;;;;;;;4.91;61.89;101175.41;1771513;81;21312;-60
2021/09/17 00:40:19;;;;;;;;;;;;;;;4.91;61.78;101174.11;1772354;81;21130;-60
2021/09/17 00:42:51;;;;;;;40.85;13.32;;;;;;;4.92;61.56;101179.70;1771521;81;20159;-60
2021/09/17 00:45:25;;;;;;;48.63;12.90;;;;;;;4.86;61.45;101179.98;1770066;81;21182;-59
2021/09/17 00:47:59;;;;;;;;;;;;;;;4.83;61.51;101177.55;1772518;81;21189;-59
2021/09/17 00:50:32;;;;;;;145.77;45.00;;;;;;;4.82;61.57;101176.73;1770003;81;20172;-59
2021/09/17 00:53:05;;;;;;;97.80;31.00;;;;;;;4.79;61.76;101172.98;1771678;81;21178;-59
2021/09/17 00:55:39;;;;;;;97.92;31.97;;;;;;;4.79;61.76;101176.88;1771212;81;21273;-59
2021/09/17 00:58:12;;;;;;;54.93;20.07;;;;;;;4.76;61.74;101171.38;1771741;81;21281;-60
2021/09/17 01:00:45;;;;;;;45.73;16.77;;;;;;;4.75;61.72;101172.77;1771099;81;21325;-60
2021/09/17 01:03:18;;;;;;;48.85;13.60;;;;;;;4.71;61.78;101175.95;1771623;81;21277;-60
2021/09/17 01:05:51;;;;;;;36.33;11.43;;;;;;;4.67;61.96;101169.25;1771261;81;21288;-60
2021/09/17 01:08:25;;;;;;;30.75;10.82;;;;;;;4.64;61.99;101168.55;1771579;81;21143;-60
2021/09/17 01:11:01;;;;;;;;;;;;;;;4.58;62.08;101169.72;1773031;81;21150;-60
2021/09/17 01:13:35;;;;;;;27.73;9.48;;;;;;;4.56;62.26;101166.81;1744114;81;20579;-59
2021/09/17 01:16:09;;;;;;;27.80;9.70;;;;;;;4.53;62.43;101166.95;1769947;81;21158;-60
2021/09/17 01:18:43;;;;;;;26.75;10.05;;;;;;;4.53;62.57;101170.84;1771471;81;21276;-59
2021/09/17 01:21:16;;;;;;;24.63;9.73;;;;;;;4.51;62.67;101170.09;1769886;81;21150;-59
2021/09/17 01:23:51;;;;;;;35.88;10.35;;;;;;;4.49;62.83;101166.73;1771804;81;21237;-59
2021/09/17 01:26:24;;;;;;;34.23;10.93;;;;;;;4.48;62.86;101166.34;1771124;81;21285;-59
2021/09/17 01:28:58;;;;;;;30.72;10.05;;;;;;;4.46;62.77;101170.77;1770008;81;21202;-59
2021/09/17 01:31:32;;;;;;;37.88;10.75;;;;;;;4.41;62.72;101167.11;1770802;81;21143;-59
2021/09/17 01:34:11;;;;;;;27.22;9.60;;;;;;;4.39;62.84;101162.91;1771946;81;21269;-59
2021/09/17 01:36:44;;;;;;;24.80;9.95;;;;;;;4.35;62.96;101166.09;1745189;81;21217;-59
2021/09/17 01:39:19;;;;;;;31.73;10.05;;;;;;;4.35;63.06;101165.25;1771719;81;21906;-59
2021/09/17 01:41:53;;;;;;;41.15;13.75;;;;;;;4.34;63.11;101165.73;1760614;81;21284;-59
2021/09/17 01:44:26;;;;;;;31.57;13.22;;;;;;;4.35;63.21;101162.66;1747421;82;21256;-59
2021/09/17 01:47:00;;;;;;;40.85;11.97;;;;;;;4.34;63.25;101164.43;1746373;82;21817;-59
2021/09/17 01:49:34;;;;;;;29.07;9.98;;;;;;;4.34;63.20;101159.70;1747242;82;21272;-59
2021/09/17 01:52:08;;;;;;;26.85;10.13;;;;;;;4.32;63.29;101158.48;1746380;82;21703;-59
2021/09/17 01:54:43;;;;;;;27.07;9.38;;;;;;;4.32;63.31;101157.19;1747430;82;21256;-59
2021/09/17 01:57:17;;;;;;;39.45;10.08;;;;;;;4.31;63.25;101153.36;1745813;81;21145;-59
2021/09/17 01:59:50;;;;;;;38.20;10.80;;;;;;;4.27;63.12;101150.55;1747447;82;21255;-59
2021/09/17 02:02:23;;;;;;;29.15;7.20;;;;;;;4.24;63.13;101153.28;1746590;82;21156;-59
2021/09/17 02:04:57;;;;;;;28.00;10.23;;;;;;;4.18;63.04;101148.41;1747526;82;21687;-60
2021/09/17 02:07:31;;;;;;;31.83;9.87;;;;;;;4.13;63.01;101151.67;1746709;82;21275;-59
2021/09/17 02:10:05;;;;;;;31.27;9.90;;;;;;;4.11;63.21;101149.61;1747280;82;21503;-60
2021/09/17 02:12:38;;;;;;;36.13;9.65;;;;;;;4.11;63.25;101153.02;1746506;82;21977;-60
2021/09/17 02:15:13;;;;;;;24.10;8.68;;;;;;;4.12;63.19;101156.45;1747415;82;21141;-60
2021/09/17 02:17:45;;;;;;;28.90;8.80;;;;;;;4.09;63.07;101154.40;1746364;82;21326;-60
2021/09/17 02:20:18;;;;;;;43.33;9.97;;;;;;;4.07;63.11;101151.49;1747502;82;21125;-60
2021/09/17 02:22:53;;;;;;;30.23;10.23;;;;;;;4.05;63.24;101150.73;1745841;81;21148;-60
2021/09/17 02:25:26;;;;;;;25.10;9.25;;;;;;;4.03;63.24;101153.86;1747364;82;21180;-61
2021/09/17 02:28:00;;;;;;;27.10;8.60;;;;;;;3.98;63.26;101150.64;1746173;82;21307;-59
2021/09/17 02:30:36;;;;;;;34.67;8.95;;;;;;;3.95;63.38;101154.22;1747109;82;21319;-58
2021/09/17 02:33:10;;;;;;;39.65;11.38;;;;;;;3.93;63.43;101148.72;1746415;82;21275;-60
2021/09/17 02:35:43;;;;;;;;;;;;;;;3.94;63.44;101143.45;1749878;82;21240;-59
2021/09/17 02:42:21;;;;;;;34.93;9.03;;;;;;;3.88;63.16;101144.21;1865112;76;21239;-65
2021/09/17 02:44:56;;;;;;;29.02;8.58;;;;;;;3.83;63.25;101147.02;1781880;79;21311;-66
2021/09/17 02:47:30;;;;;;;29.12;9.08;;;;;;;3.80;63.32;101146.30;1805145;78;21323;-65
2021/09/17 02:50:04;;;;;;;33.95;9.23;;;;;;;3.78;63.34;101148.98;1833818;76;21146;-65
2021/09/17 02:52:37;;;;;;;35.80;9.33;;;;;;;3.77;63.37;101149.06;1852394;76;21125;-65
2021/09/17 02:55:12;;;;;;;33.55;9.45;;;;;;;3.75;63.50;101145.70;1782065;79;21170;-65
2021/09/17 02:57:45;;;;;;;34.23;10.85;;;;;;;3.74;63.54;101141.42;1859659;76;21260;-65
2021/09/17 03:00:21;;;;;;;30.77;10.03;;;;;;;3.72;63.53;101144.55;1845963;76;21159;-65
2021/09/17 03:02:54;;;;;;;33.40;10.70;;;;;;;3.71;63.40;101145.45;1846668;76;21298;-66
2021/09/17 03:05:27;;;;;;;26.45;8.63;;;;;;;3.70;63.33;101139.91;1838979;76;21199;-65
2021/09/17 03:08:00;;;;;;;32.43;14.43;;;;;;;3.70;63.29;101146.38;1853608;76;21149;-65
2021/09/17 03:10:34;;;;;;;44.50;16.48;;;;;;;3.69;63.27;101152.00;1782811;79;21176;-65
2021/09/17 03:13:08;;;;;;;41.83;16.90;;;;;;;3.70;63.33;101147.19;1773143;79;21113;-65
2021/09/17 03:15:41;;;;;;;43.48;15.93;;;;;;;3.76;63.32;101149.52;1767863;81;21212;-66
2021/09/17 03:18:14;;;;;;;;;;;;;;;3.79;63.36;101144.65;1833734;78;21129;-65
2021/09/17 03:20:50;;;;;;;34.50;15.23;;;;;;;3.83;63.38;101143.58;1834046;77;20642;-65
2021/09/17 03:23:24;;;;;;;30.90;11.10;;;;;;;3.88;63.52;101150.23;1831948;77;21126;-65
2021/09/17 03:25:57;;;;;;;28.57;9.73;;;;;;;3.95;63.38;101150.33;1827794;77;21255;-66
2021/09/17 03:28:30;;;;;;;30.77;11.50;;;;;;;4.02;63.29;101153.02;1838817;77;21728;-66
2021/09/17 03:31:03;;;;;;;32.78;9.78;;;;;;;4.12;63.31;101150.82;1817261;78;21310;-66
2021/09/17 03:33:36;;;;;;;21.05;8.08;;;;;;;4.19;63.15;101150.06;1825147;78;21301;-67
2021/09/17 03:36:10;;;;;;;23.35;7.30;;;;;;;4.29;63.05;101150.01;1809958;77;21317;-66
2021/09/17 03:38:43;;;;;;;33.27;10.23;;;;;;;4.38;62.75;101153.44;1785072;78;21259;-67
2021/09/17 03:41:17;;;;;;;26.15;9.35;;;;;;;4.48;62.60;101150.78;1824843;78;21679;-67
2021/09/17 03:43:51;;;;;;;31.48;9.68;;;;;;;4.78;62.32;101147.94;1804938;77;21287;-67
2021/09/17 03:46:23;;;;;;;36.33;10.32;;;;;;;5.07;61.63;101151.64;1811024;77;21247;-67
2021/09/17 03:48:57;;;;;;;39.38;10.00;;;;;;;5.22;61.15;101154.75;1812884;77;21260;-66
2021/09/17 03:51:30;;;;;;;30.20;10.07;;;;;;;5.34;60.90;101145.86;1823578;78;21272;-66
2021/09/17 03:54:03;;;;;;;32.83;9.55;;;;;;;5.50;60.63;101143.73;1817045;78;21560;-67
2021/09/17 03:56:36;;;;;;;29.23;9.85;;;;;;;5.67;60.43;101143.20;1811993;78;21270;-66
2021/09/17 03:59:10;;;;;;;27.03;8.60;;;;;;;5.92;60.03;101140.95;1824332;78;21822;-67
2021/09/17 04:01:44;;;;;;;26.75;8.98;;;;;;;6.25;59.40;101136.95;1824044;78;21276;-67
2021/09/17 04:04:18;;;;;;;32.70;8.15;;;;;;;6.57;58.66;101135.92;1757564;81;21285;-67
2021/09/17 04:06:52;;;;;;;26.17;9.40;;;;;;;7.12;57.86;101138.69;1764930;81;21184;-67
2021/09/17 04:09:25;;;;;;;16.00;6.73;;;;;;;7.74;56.65;101136.60;1756863;81;21699;-67
2021/09/17 04:11:59;;;;;;;55.48;11.33;;;;;;;8.66;54.87;101130.55;1756369;81;21216;-65
2021/09/17 04:14:32;;;;;;;29.80;9.87;;;;;;;9.66;52.95;101131.41;1815418;78;21228;-65
2021/09/17 04:17:05;;;;;;;;;;;;;;;10.64;50.68;101128.93;1825943;77;21312;-66
2021/09/17 04:19:39;;;;;;;31.52;10.55;;;;;;;11.53;48.43;101125.54;1821151;77;20214;-67
2021/09/17 04:22:12;;;;;;;30.57;10.37;;;;;;;12.25;46.57;101125.39;1808952;78;21264;-66
2021/09/17 04:24:46;;;;;;;27.90;10.55;;;;;;;12.99;44.68;101129.13;1805678;78;21369;-67
2021/09/17 04:27:25;;;;;;;39.37;12.17;;;;;;;13.75;43.01;101130.44;1809484;78;21345;-67
2021/09/17 04:29:58;;;;;;;43.10;20.27;;;;;;;14.48;41.71;101124.22;1823088;77;21193;-68
2021/09/17 04:32:32;;;;;;;38.80;20.05;;;;;;;15.20;39.71;101119.67;1828016;78;21196;-66
2021/09/17 04:35:06;;;;;;;38.50;17.35;;;;;;;15.77;38.20;101123.38;1815239;78;21302;-65
2021/09/17 04:37:42;;;;;;;39.90;17.48;;;;;;;16.25;37.02;101126.17;1819841;78;21149;-65
2021/09/17 04:40:16;;;;;;;35.20;17.92;;;;;;;16.70;35.99;101114.52;1814016;78;21275;-63
2021/09/17 04:42:49;;;;;;;50.58;25.65;;;;;;;17.18;35.08;101117.95;1813664;77;21324;-63
2021/09/17 04:45:23;;;;;;;53.50;29.05;;;;;;;17.70;34.17;101113.88;1818083;77;21244;-64
2021/09/17 04:47:56;;;;;;;42.23;19.75;;;;;;;18.23;33.43;101117.47;1825724;78;21259;-64
2021/09/17 04:50:29;;;;;;;27.85;13.90;;;;;;;18.77;32.50;101113.67;1821746;78;21253;-65
2021/09/17 04:53:03;;;;;;;26.17;11.35;;;;;;;19.32;31.68;101114.22;1809667;78;21307;-64
2021/09/17 04:55:36;;;;;;;23.95;9.35;;;;;;;19.84;30.46;101112.66;1814396;78;21200;-65
2021/09/17 04:58:10;;;;;;;19.90;8.35;;;;;;;20.32;29.70;101105.38;1790336;78;22637;-65
2021/09/17 05:00:43;;;;;;;20.17;9.50;;;;;;;20.75;29.01;101102.80;1789046;78;21152;-66
2021/09/17 05:03:16;;;;;;;29.80;9.55;;;;;;;21.27;28.38;101104.63;1790046;78;21200;-66
2021/09/17 05:05:50;;;;;;;19.50;9.13;;;;;;;21.74;27.66;101104.16;1741340;81;21339;-65
2021/09/17 05:08:23;;;;;;;29.80;9.25;;;;;;;22.16;27.06;101097.59;1745967;80;21138;-65
2021/09/17 05:10:56;;;;;;;25.55;9.33;;;;;;;22.53;26.55;101088.45;1743795;82;21153;-66
2021/09/17 05:13:29;;;;;;;;;;;;;;;22.84;26.02;101089.42;1740856;81;21223;-65
2021/09/17 05:16:02;;;;;;;28.17;11.43;;;;;;;23.18;25.48;101086.76;1736508;81;20235;-66
2021/09/17 05:18:35;;;;;;;44.08;14.45;;;;;;;23.46;24.90;101087.53;1729558;81;21254;-65
2021/09/17 05:21:08;;;;;;;35.28;14.28;;;;;;;23.79;24.32;101083.63;1725316;81;21308;-65
2021/09/17 05:23:42;;;;;;;28.27;14.45;;;;;;;24.02;23.91;101087.61;1723904;81;21770;-65
2021/09/17 05:26:15;;;;;;;35.40;16.85;;;;;;;24.21;23.62;101094.55;1743819;81;21235;-64
2021/09/17 05:28:49;;;;;;;29.85;16.85;;;;;;;24.40;23.30;101094.56;1733846;81;21188;-64
2021/09/17 05:31:22;;;;;;;38.83;17.65;;;;;;;24.48;23.34;101095.67;1781054;79;21905;-63
2021/09/17 05:33:55;;;;;;;40.70;16.75;;;;;;;24.86;22.90;101096.41;1790893;78;21336;-64
2021/09/17 05:36:28;;;;;;;33.70;14.15;;;;;;;25.25;22.35;101101.14;1794207;78;21220;-66
2021/09/17 05:39:02;;;;;;;34.10;14.35;;;;;;;25.66;22.41;101104.83;1719986;81;21750;-65
2021/09/17 05:41:34;;;;;;;;;;;;;;;26.22;21.91;101104.94;1765097;80;21333;-63
2021/09/17 05:44:08;;;;;;;20.77;11.35;;;;;;;26.78;21.14;101095.49;1752960;81;20227;-65
2021/09/17 05:46:41;;;;;;;25.60;12.65;;;;;;;27.14;20.78;101094.70;1741841;81;21303;-66
2021/09/17 05:49:14;;;;;;;23.27;10.38;;;;;;;27.71;20.38;101087.50;1798894;78;21173;-65
2021/09/17 05:51:48;;;;;;;23.85;10.60;;;;;;;28.32;19.53;101087.23;1780884;78;21201;-64
2021/09/17 05:54:22;;;;;;;27.48;11.15;;;;;;;28.87;19.14;101085.58;1788832;78;21280;-63
2021/09/17 05:56:55;;;;;;;28.20;11.35;;;;;;;29.39;18.71;101082.39;1783038;79;21157;-64
2021/09/17 05:59:29;;;;;;;21.33;11.03;;;;;;;29.97;17.95;101087.06;1794891;79;22511;-63
2021/09/17 06:02:03;;;;;;;;;;;;;;;30.33;17.60;101088.48;1798050;78;21176;-63
2021/09/17 06:04:37;;;;;;;41.00;12.90;;;;;;;30.49;17.43;101087.16;1803162;78;20232;-63
2021/09/17 06:07:10;;;;;;;23.70;10.38;;;;;;;30.72;17.41;101082.59;1786566;79;21334;-62
2021/09/17 06:09:44;;;;;;;21.60;9.70;;;;;;;31.15;16.89;101082.16;1783709;79;21796;-64
2021/09/17 06:12:17;;;;;;;22.52;9.08;;;;;;;31.57;16.38;101083.78;1772646;79;21312;-65
2021/09/17 06:14:50;;;;;;;22.07;9.68;;;;;;;31.93;16.16;101080.33;1777669;80;21208;-63
2021/09/17 06:17:24;;;;;;;25.20;9.23;;;;;;;32.35;15.79;101079.11;1777523;79;21128;-63
2021/09/17 06:19:57;;;;;;;33.80;10.45;;;;;;;32.68;15.51;101078.01;1791039;79;21267;-63
2021/09/17 06:22:31;;;;;;;24.57;8.78;;;;;;;32.95;15.33;101079.25;1784117;80;21260;-64
2021/09/17 06:25:05;;;;;;;28.70;9.05;;;;;;;33.34;15.08;101072.94;1777520;79;21158;-63
2021/09/17 06:27:39;;;;;;;27.15;8.68;;;;;;;33.68;14.78;101074.13;1773336;79;21786;-64
2021/09/17 06:30:14;;;;;;;24.52;8.83;;;;;;;34.12;14.47;101078.02;1796027;79;21255;-63
2021/09/17 06:32:47;;;;;;;19.85;7.28;;;;;;;34.52;14.14;101078.53;1797637;79;21885;-64
2021/09/17 06:35:20;;;;;;;24.27;7.05;;;;;;;34.91;13.95;101076.84;1796306;79;21255;-65
2021/09/17 06:37:56;;;;;;;22.25;7.03;;;;;;;35.04;13.75;101073.55;1794539;79;21161;-62
2021/09/17 06:40:29;;;;;;;9.93;5.45;;;;;;;35.27;13.66;101074.83;1796157;78;21319;-64
2021/09/17 06:43:04;;;;;;;20.32;7.70;;;;;;;35.56;13.44;101070.89;1774681;79;21358;-63
2021/09/17 06:45:37;;;;;;;20.02;5.58;;;;;;;35.81;13.25;101075.61;1806490;78;21722;-64
2021/09/17 06:48:10;;;;;;;19.30;6.30;;;;;;;35.92;13.25;101072.28;1817847;78;21252;-63
2021/09/17 06:50:44;;;;;;;14.58;5.75;;;;;;;36.11;13.10;101070.52;1768519;78;21162;-62
2021/09/17 06:53:17;;;;;;;12.33;5.60;;;;;;;36.55;12.75;101066.84;1770764;79;21348;-63
2021/09/17 06:55:51;;;;;;;13.88;5.60;;;;;;;36.76;12.51;101067.70;1750493;81;21360;-65
2021/09/17 06:58:29;;;;;;;15.65;5.50;;;;;;;36.98;12.53;101063.11;1707192;82;21870;-65
2021/09/17 07:00:59;;;;;;;9.90;4.65;;;;;;;37.31;12.25;101055.30;1740640;81;21207;-64
2021/09/17 07:03:33;;;;;;;11.33;4.80;;;;;;;37.57;11.97;101053.86;1718953;82;21335;-64
2021/09/17 07:06:06;;;;;;;10.30;4.47;;;;;;;37.79;11.61;101054.63;1701254;82;21412;-64
2021/09/17 07:08:40;;;;;;;15.53;5.10;;;;;;;38.09;11.43;101058.27;1718471;82;21879;-65
2021/09/17 07:11:14;;;;;;;17.42;5.15;;;;;;;38.40;11.31;101049.81;1702361;82;21234;-65
2021/09/17 07:13:48;;;;;;;10.55;4.28;;;;;;;38.56;11.04;101050.87;1715202;82;21704;-65
2021/09/17 07:16:23;;;;;;;13.68;4.25;;;;;;;38.69;10.72;101052.27;1723854;82;21271;-65
2021/09/17 07:18:57;;;;;;;11.70;4.17;;;;;;;38.91;10.58;101041.98;1711173;83;21240;-64
2021/09/17 07:21:31;;;;;;;12.07;4.72;;;;;;;39.25;10.38;101038.81;1735199;82;21279;-65
2021/09/17 07:24:05;;;;;;;19.07;4.70;;;;;;;39.44;10.16;101041.66;1774764;79;21135;-65
2021/09/17 07:26:38;;;;;;;7.40;3.17;;;;;;;39.78;9.94;101036.23;1787197;79;21255;-65
2021/09/17 07:29:12;;;;;;;9.25;3.60;;;;;;;40.03;9.72;101032.31;1792793;78;21324;-65
2021/09/17 07:31:45;;;;;;;12.60;4.22;;;;;;;40.20;9.59;101037.09;1812999;77;21284;-66
2021/09/17 07:34:18;;;;;;;11.88;3.95;;;;;;;40.23;9.62;101024.94;1784704;77;21270;-65
2021/09/17 07:36:51;;;;;;;9.88;3.72;;;;;;;40.18;9.89;101022.88;1775733;79;21322;-66
2021/09/17 07:39:25;;;;;;;7.40;3.22;;;;;;;40.12;9.66;101022.23;1769237;80;21363;-67
2021/09/17 07:41:59;;;;;;;11.50;3.27;;;;;;;40.09;9.53;101028.34;1777612;79;21790;-65
2021/09/17 07:44:32;;;;;;;13.70;3.52;;;;;;;40.07;9.43;101023.73;1786727;78;21322;-65
2021/09/17 07:47:10;;;;;;;13.03;3.60;;;;;;;39.95;9.39;101022.09;1781462;79;21307;-64
2021/09/17 07:49:43;;;;;;;10.00;3.47;;;;;;;40.02;9.42;101025.78;1789431;77;21821;-67
2021/09/17 07:52:16;;;;;;;9.00;3.12;;;;;;;39.90;9.55;101012.63;1793190;78;21302;-66
2021/09/17 07:54:50;;;;;;;9.70;3.02;;;;;;;39.79;9.52;101016.75;1800188;78;21260;-66
2021/09/17 07:57:24;;;;;;;7.95;3.17;;;;;;;39.58;9.45;101005.42;1805686;78;21786;-66
2021/09/17 07:59:57;;;;;;;5.83;2.20;;;;;;;39.67;9.47;101006.33;1798334;78;21276;-64
2021/09/17 08:02:30;;;;;;;5.92;2.90;;;;;;;39.61;9.41;101004.03;1802520;78;21762;-67
2021/09/17 08:05:05;;;;;;;7.30;2.60;;;;;;;39.50;9.49;100997.16;1793496;79;21821;-64
2021/09/17 08:07:39;;;;;;;7.12;2.72;;;;;;;39.54;9.71;100995.40;1805819;78;21722;-68
2021/09/17 08:10:13;;;;;;;5.62;2.50;;;;;;;39.96;9.26;100996.27;1789518;79;21256;-63
2021/09/17 08:12:46;;;;;;;5.58;2.65;;;;;;;40.41;8.92;100992.09;1801837;78;21338;-67
2021/09/17 08:15:20;;;;;;;4.80;2.05;;;;;;;40.44;8.76;100994.22;1790050;79;21307;-66
2021/09/17 08:17:53;;;;;;;58.80;6.22;;;;;;;40.59;8.85;100989.67;1781993;77;22647;-66
2021/09/17 08:20:26;;;;;;;7.37;2.72;;;;;;;40.83;8.60;100984.57;1731066;82;21308;-67
2021/09/17 08:22:59;;;;;;;6.08;2.27;;;;;;;40.77;8.60;100985.28;1729565;82;21806;-68
2021/09/17 08:25:32;;;;;;;5.85;2.05;;;;;;;40.66;8.68;100984.52;1750419;81;21307;-66
2021/09/17 08:28:06;;;;;;;4.30;2.15;;;;;;;40.68;8.55;100979.52;1734087;80;21814;-64
2021/09/17 08:30:39;;;;;;;6.92;2.22;;;;;;;40.76;8.49;100980.12;1777283;77;21342;-65
2021/09/17 08:33:12;;;;;;;6.28;1.90;;;;;;;40.36;8.59;100969.14;1771788;79;21302;-66
2021/09/17 08:35:47;;;;;;;8.58;2.67;;;;;;;39.81;8.87;100958.86;1772214;79;21226;-67
2021/09/17 08:38:21;;;;;;;7.60;2.20;;;;;;;39.46;9.26;100959.95;1758885;79;21303;-68
2021/09/17 08:40:58;;;;;;;11.97;2.20;;;;;;;39.32;9.20;100961.12;1795745;78;21886;-68
2021/09/17 08:43:31;;;;;;;4.17;1.70;;;;;;;39.08;9.61;100954.54;1775513;79;21207;-66
2021/09/17 08:46:05;;;;;;;4.30;2.00;;;;;;;38.80;9.41;100960.64;1778243;77;21344;-68
2021/09/17 08:48:39;;;;;;;10.08;2.35;;;;;;;38.39;9.72;100958.45;1788232;78;21307;-69
2021/09/17 08:51:13;;;;;;;5.40;2.33;;;;;;;38.14;10.10;100961.66;1780526;78;21252;-66
2021/09/17 08:53:47;;;;;;;6.85;1.95;;;;;;;37.99;10.13;100957.28;1800977;78;21245;-67
2021/09/17 08:56:26;;;;;;;16.52;2.42;;;;;;;38.01;10.00;100956.97;1798114;78;21136;-66
2021/09/17 08:58:55;;;;;;;5.65;1.85;;;;;;;38.03;10.14;100952.83;1796479;77;21442;-66
2021/09/17 09:01:34;;;;;;;8.58;2.45;;;;;;;37.99;10.49;100947.72;1793500;78;21353;-64
2021/09/17 09:04:08;;;;;;;5.83;2.10;;;;;;;37.98;10.41;100948.00;1786327;78;21302;-65
2021/09/17 09:06:46;;;;;;;5.40;2.08;;;;;;;37.83;10.35;100942.28;1794975;78;21250;-66
2021/09/17 09:09:20;;;;;;;8.08;2.00;;;;;;;37.77;10.37;100938.78;1790125;78;21346;-66
2021/09/17 09:11:54;;;;;;;9.98;2.67;;;;;;;37.66;10.41;100933.80;1802955;77;21749;-68
2021/09/17 09:14:28;;;;;;;10.98;2.55;;;;;;;37.19;10.90;100929.90;1795645;78;21264;-65
2021/09/17 09:17:04;;;;;;;5.78;2.30;;;;;;;36.73;11.01;100933.79;1795593;78;21146;-67
2021/09/17 09:19:37;;;;;;;7.05;2.52;;;;;;;36.24;11.12;100926.70;1788214;78;21236;-66
2021/09/17 09:22:12;;;;;;;10.30;2.30;;;;;;;35.85;11.58;100929.52;1763712;78;21303;-64
2021/09/17 09:24:49;;;;;;;7.30;2.30;;;;;;;35.40;11.88;100927.70;1800785;78;21830;-64
2021/09/17 09:27:25;;;;;;;6.03;2.15;;;;;;;35.10;12.17;100924.13;1799226;78;21726;-68
2021/09/17 09:29:58;;;;;;;7.30;2.25;;;;;;;34.73;12.49;100924.31;1757997;78;21236;-69
2021/09/17 09:32:34;;;;;;;5.85;2.50;;;;;;;34.16;12.54;100924.20;1819960;78;21414;-69
2021/09/17 09:35:09;;;;;;;10.55;2.20;;;;;;;33.23;13.25;100929.06;1798477;78;21246;-69
2021/09/17 09:37:42;;;;;;;6.10;2.45;;;;;;;32.72;13.79;100927.83;1789495;79;21342;-67
2021/09/17 09:40:17;;;;;;;7.05;2.30;;;;;;;32.44;13.79;100923.05;1783547;79;21302;-66
2021/09/17 09:42:51;;;;;;;8.18;2.42;;;;;;;32.13;13.87;100914.48;1799833;77;21228;-66
2021/09/17 09:45:25;;;;;;;7.95;2.25;;;;;;;31.59;14.45;100921.11;1789643;77;21195;-63
2021/09/17 09:47:59;;;;;;;9.40;2.37;;;;;;;30.95;15.02;100917.48;1778589;79;21966;-65
2021/09/17 09:50:32;;;;;;;9.45;2.22;;;;;;;30.33;15.57;100906.95;1777439;77;21329;-65
2021/09/17 09:53:07;;;;;;;5.92;2.08;;;;;;;29.61;15.94;100920.95;1787177;79;21222;-66
2021/09/17 09:55:40;;;;;;;9.13;2.37;;;;;;;29.05;16.43;100911.53;1775161;78;21223;-64
2021/09/17 09:58:13;;;;;;;9.53;2.67;;;;;;;28.54;17.04;100917.23;1782799;79;21313;-64
2021/09/17 10:00:46;;;;;;;12.15;2.62;;;;;;;27.97;17.56;100905.44;1780181;79;21331;-63
2021/09/17 10:03:19;;;;;;;;;;;;;;;27.31;18.01;100904.85;1794150;78;21836;-65
2021/09/17 10:05:52;;;;;;;14.83;2.75;;;;;;;26.81;18.33;100912.38;1783517;78;20231;-62
2021/09/17 10:08:25;;;;;;;10.90;2.30;;;;;;;26.42;19.19;100903.40;1806527;78;21161;-62
2021/09/17 10:10:59;;;;;;;8.60;2.12;;;;;;;26.00;19.22;100899.69;1791929;78;21307;-62
2021/09/17 10:13:32;;;;;;;10.00;2.33;;;;;;;25.57;19.79;100898.83;1808913;78;21153;-64
2021/09/17 10:16:06;;;;;;;8.95;2.90;;;;;;;25.31;20.23;100895.28;1797456;78;21373;-64
2021/09/17 10:18:41;;;;;;;5.58;2.20;;;;;;;25.16;20.68;100900.62;1799988;78;21798;-64
2021/09/17 10:21:14;;;;;;;6.67;2.05;;;;;;;24.92;20.60;100906.72;1759851;78;21182;-63
2021/09/17 10:23:48;;;;;;;14.70;2.80;;;;;;;24.60;21.30;100888.39;1811856;78;21738;-64
2021/09/17 10:26:23;;;;;;;8.28;3.22;;;;;;;24.41;21.58;100893.33;1792724;78;21774;-65
2021/09/17 10:29:07;;;;;;;10.82;2.90;;;;;;;24.22;21.91;100895.53;1780453;78;21311;-64
2021/09/17 10:31:44;;;;;;;8.75;2.40;;;;;;;24.03;22.39;100893.14;1793184;78;21276;-64
2021/09/17 10:34:42;;;;;;;4.67;2.37;;;;;;;23.58;22.37;100877.95;1787857;78;21331;-64
2021/09/17 10:37:14;;;;;;;5.62;2.00;;;;;;;23.41;22.30;100887.71;1790815;78;22472;-64
2021/09/17 10:39:52;;;;;;;4.97;2.58;;;;;;;23.41;22.30;100887.71;1769590;79;21267;-63
2021/09/17 10:42:27;;;;;;;7.53;2.60;;;;;;;23.26;22.78;100879.55;1793580;78;21176;-64
2021/09/17 10:45:15;;;;;;;6.45;2.52;;;;;;;22.93;24.13;100870.12;1735623;81;21161;-63
2021/09/17 10:47:55;;;;;;;5.55;2.45;;;;;;;22.93;24.13;100870.12;1713194;81;21193;-64
2021/09/17 10:50:51;;;;;;;7.55;3.60;;;;;;;22.86;23.58;100879.95;1714132;81;21795;-63
2021/09/17 10:53:48;;;;;;;7.65;3.65;;;;;;;22.77;23.53;100871.82;1714398;82;21295;-65
2021/09/17 10:56:23;;;;;;;5.40;3.12;;;;;;;22.72;23.96;100867.59;1674426;83;21189;-63
2021/09/17 10:59:21;;;;;;;34.83;13.40;;;;;;;22.72;23.78;100858.25;1734635;81;21741;-64
2021/09/17 11:02:13;;;;;;;29.02;13.53;;;;;;;22.75;23.50;100852.02;1735531;81;21268;-62
2021/09/17 11:04:34;;;;;;;28.62;8.70;;;;;;;22.70;23.57;100843.78;1711712;83;21297;-63
2021/09/17 11:07:32;;;;;;;11.60;2.87;;;;;;;22.63;24.01;100840.77;1749990;80;21402;-63
2021/09/17 11:10:03;;;;;;;6.50;2.10;;;;;;;22.60;23.72;100842.46;1821180;78;21317;-63
2021/09/17 11:12:39;;;;;;;8.08;1.90;;;;;;;22.59;23.59;100837.63;1811724;78;21740;-63
2021/09/17 11:15:15;;;;;;;6.22;2.30;;;;;;;22.63;23.71;100839.44;1794950;78;21269;-65
2021/09/17 11:17:56;;;;;;;13.85;2.17;;;;;;;22.67;23.47;100833.49;1754551;80;21780;-64
2021/09/17 11:20:30;;;;;;;5.87;2.05;;;;;;;22.71;23.77;100828.05;1739455;80;21381;-65
2021/09/17 11:23:09;;;;;;;5.58;2.10;;;;;;;22.75;23.25;100829.32;1738617;81;21354;-64
2021/09/17 11:25:44;;;;;;;8.90;2.17;;;;;;;22.73;23.28;100834.05;1765188;80;21290;-64
2021/09/17 11:28:28;;;;;;;6.28;1.70;;;;;;;22.73;23.64;100830.55;1780565;78;22421;-63
2021/09/17 11:31:14;;;;;;;6.72;2.22;;;;;;;22.72;23.47;100824.38;1784932;78;21327;-62
2021/09/17 11:34:07;;;;;;;12.63;2.45;;;;;;;22.74;23.28;100833.00;1776280;79;21348;-64
2021/09/17 11:36:50;;;;;;;7.75;2.08;;;;;;;22.68;23.19;100830.32;1787345;79;21334;-63
2021/09/17 11:39:35;;;;;;;8.50;1.60;;;;;;;22.57;23.16;100822.34;1781192;79;21278;-65
2021/09/17 11:42:18;;;;;;;5.67;1.80;;;;;;;22.51;23.25;100827.15;1770205;80;21342;-65
2021/09/17 11:44:54;;;;;;;9.53;1.85;;;;;;;22.47;23.39;100822.42;1788285;80;21626;-65
2021/09/17 11:47:37;;;;;;;6.50;2.17;;;;;;;22.43;23.54;100818.48;1780472;79;21278;-66
2021/09/17 11:50:09;;;;;;;35.58;2.95;;;;;;;22.42;23.67;100827.52;1781379;79;21259;-65
2021/09/17 11:52:48;;;;;;;6.95;2.25;;;;;;;22.41;23.44;100820.53;1783174;79;21286;-66
2021/09/17 11:55:31;;;;;;;6.33;1.72;;;;;;;22.36;23.62;100816.30;1782629;80;21721;-66
2021/09/17 11:58:00;;;;;;;7.17;1.85;;;;;;;22.31;23.75;100808.89;1772118;80;21168;-66
2021/09/17 12:00:33;;;;;;;6.70;1.65;;;;;;;22.29;23.59;100808.78;1776727;79;21864;-67
2021/09/17 12:03:08;;;;;;;;;;;;;;;22.27;23.65;100806.83;1781695;79;21318;-65